BAW85M LKPR-EGLL
Flight info
| Callsign | BAW85M |
|---|---|
| Flight time | 1h 42m |
| Altitude | 36000 |
| Route | BALTU6H BALTU DCT DONAD DCT VARIK L602 SODRO DCT KATCE DCT WRB DCT ABNED L980 LOGAN LOGAN2H |
| Aircraft | A320/M-SDE3FGHIRWY/LB1 |
Departure
| Time | 2026-05-06 20:11 |
|---|---|
| Airport | Václav Havel Airport Prague (LKPR) |
Arrival
| Time | 2026-05-06 21:53 |
|---|---|
| Airport | London Heathrow Airport (EGLL) |
| Time | Latitude | Longitude | Altitude | Speed | Heading |
|---|---|---|---|---|---|
| 2026-05-06 19:22 | 50.10928 | 14.26598 | 1171 ft | 0 kts | 214° |
| 2026-05-06 19:51 | 50.10933 | 14.26604 | 1174 ft | 4 kts | 214° |
| 2026-05-06 19:51 | 50.10956 | 14.26626 | 1170 ft | 4 kts | 214° |
| 2026-05-06 19:51 | 50.10974 | 14.26651 | 1170 ft | 4 kts | 259° |
| 2026-05-06 19:52 | 50.10969 | 14.26665 | 1172 ft | 4 kts | 328° |
| 2026-05-06 19:52 | 50.10947 | 14.26688 | 1172 ft | 4 kts | 324° |
| 2026-05-06 19:52 | 50.10932 | 14.26705 | 1170 ft | 0 kts | 319° |
| 2026-05-06 19:54 | 50.10936 | 14.26699 | 1172 ft | 3 kts | 320° |
| 2026-05-06 19:54 | 50.10973 | 14.26658 | 1175 ft | 8 kts | 326° |
| 2026-05-06 19:54 | 50.11025 | 14.26609 | 1170 ft | 10 kts | 327° |
| 2026-05-06 19:55 | 50.11036 | 14.26504 | 1169 ft | 12 kts | 233° |
| 2026-05-06 19:55 | 50.10960 | 14.26421 | 1169 ft | 14 kts | 216° |
| 2026-05-06 19:55 | 50.10872 | 14.26329 | 1173 ft | 16 kts | 214° |
| 2026-05-06 19:55 | 50.10776 | 14.26224 | 1170 ft | 18 kts | 215° |
| 2026-05-06 19:56 | 50.10668 | 14.26109 | 1169 ft | 20 kts | 214° |
| 2026-05-06 19:56 | 50.10580 | 14.26024 | 1173 ft | 11 kts | 211° |
| 2026-05-06 19:56 | 50.10545 | 14.25987 | 1173 ft | 4 kts | 216° |
| 2026-05-06 19:56 | 50.10531 | 14.25910 | 1174 ft | 12 kts | 285° |
| 2026-05-06 19:57 | 50.10568 | 14.25819 | 1174 ft | 6 kts | 305° |
| 2026-05-06 19:57 | 50.10592 | 14.25763 | 1174 ft | 7 kts | 303° |
| 2026-05-06 19:57 | 50.10619 | 14.25693 | 1172 ft | 9 kts | 298° |
| 2026-05-06 19:57 | 50.10628 | 14.25667 | 1171 ft | 3 kts | 298° |
| 2026-05-06 19:58 | 50.10631 | 14.25657 | 1171 ft | 0 kts | 298° |
| 2026-05-06 19:59 | 50.10634 | 14.25647 | 1171 ft | 3 kts | 298° |
| 2026-05-06 19:59 | 50.10641 | 14.25618 | 1172 ft | 0 kts | 279° |
| 2026-05-06 20:01 | 50.10641 | 14.25607 | 1170 ft | 3 kts | 267° |
| 2026-05-06 20:01 | 50.10637 | 14.25586 | 1172 ft | 3 kts | 249° |
| 2026-05-06 20:02 | 50.10626 | 14.25554 | 1169 ft | 2 kts | 241° |
| 2026-05-06 20:02 | 50.10617 | 14.25534 | 1169 ft | 4 kts | 235° |
| 2026-05-06 20:02 | 50.10610 | 14.25516 | 1170 ft | 3 kts | 240° |
| 2026-05-06 20:02 | 50.10598 | 14.25471 | 1169 ft | 3 kts | 256° |
| 2026-05-06 20:03 | 50.10597 | 14.25468 | 1169 ft | 0 kts | 256° |
| 2026-05-06 20:03 | 50.10595 | 14.25448 | 1170 ft | 0 kts | 258° |
| 2026-05-06 20:06 | 50.10593 | 14.25438 | 1169 ft | 3 kts | 258° |
| 2026-05-06 20:07 | 50.10585 | 14.25376 | 1170 ft | 0 kts | 258° |
| 2026-05-06 20:07 | 50.10583 | 14.25361 | 1169 ft | 4 kts | 258° |
| 2026-05-06 20:07 | 50.10576 | 14.25310 | 1169 ft | 8 kts | 259° |
| 2026-05-06 20:08 | 50.10574 | 14.25294 | 1166 ft | 0 kts | 259° |
| 2026-05-06 20:08 | 50.10568 | 14.25243 | 1168 ft | 9 kts | 257° |
| 2026-05-06 20:09 | 50.10542 | 14.25180 | 1165 ft | 12 kts | 218° |
| 2026-05-06 20:09 | 50.10469 | 14.25218 | 1168 ft | 12 kts | 125° |
| 2026-05-06 20:09 | 50.10466 | 14.25226 | 1167 ft | 0 kts | 125° |
| 2026-05-06 20:09 | 50.10464 | 14.25231 | 1170 ft | 4 kts | 124° |
| 2026-05-06 20:10 | 50.10349 | 14.25475 | 1179 ft | 59 kts | 128° |
| 2026-05-06 20:10 | 50.09984 | 14.26227 | 1196 ft | 112 kts | 127° |
| 2026-05-06 20:10 | 50.09426 | 14.27387 | 1214 ft | 154 kts | 125° |
| 2026-05-06 20:10 | 50.08774 | 14.28721 | 1726 ft | 153 kts | 127° |
| 2026-05-06 20:11 | 50.08104 | 14.30049 | 2245 ft | 159 kts | 127° |
| 2026-05-06 20:11 | 50.07400 | 14.31469 | 2636 ft | 176 kts | 126° |
| 2026-05-06 20:11 | 50.06621 | 14.33091 | 2885 ft | 198 kts | 126° |
| 2026-05-06 20:11 | 50.05753 | 14.34902 | 3122 ft | 220 kts | 126° |
| 2026-05-06 20:12 | 50.04799 | 14.36891 | 3438 ft | 239 kts | 126° |
| 2026-05-06 20:12 | 50.03775 | 14.39015 | 3917 ft | 257 kts | 127° |
| 2026-05-06 20:12 | 50.02667 | 14.41304 | 4559 ft | 269 kts | 128° |
| 2026-05-06 20:12 | 50.01528 | 14.43649 | 5396 ft | 273 kts | 129° |
| 2026-05-06 20:13 | 50.00525 | 14.46175 | 6231 ft | 280 kts | 112° |
| 2026-05-06 20:13 | 50.00291 | 14.49205 | 6983 ft | 290 kts | 84° |
| 2026-05-06 20:13 | 50.01022 | 14.52145 | 7737 ft | 298 kts | 53° |
| 2026-05-06 20:13 | 50.02549 | 14.54336 | 8479 ft | 302 kts | 36° |
| 2026-05-06 20:14 | 50.04272 | 14.56311 | 9266 ft | 305 kts | 35° |
| 2026-05-06 20:14 | 50.05998 | 14.58276 | 9979 ft | 310 kts | 36° |
| 2026-05-06 20:14 | 50.07802 | 14.60330 | 10210 ft | 333 kts | 34° |
| 2026-05-06 20:14 | 50.09885 | 14.62142 | 10393 ft | 353 kts | 20° |
| 2026-05-06 20:15 | 50.12270 | 14.63163 | 10892 ft | 358 kts | 6° |
| 2026-05-06 20:15 | 50.14761 | 14.63306 | 11486 ft | 360 kts | 353° |
| 2026-05-06 20:15 | 50.17202 | 14.62510 | 11718 ft | 358 kts | 336° |
| 2026-05-06 20:15 | 50.19338 | 14.60589 | 12021 ft | 354 kts | 316° |
| 2026-05-06 20:16 | 50.20949 | 14.57742 | 12681 ft | 351 kts | 298° |
| 2026-05-06 20:16 | 50.21909 | 14.54264 | 13289 ft | 348 kts | 280° |
| 2026-05-06 20:16 | 50.22198 | 14.50513 | 13864 ft | 349 kts | 271° |
| 2026-05-06 20:16 | 50.22357 | 14.46729 | 14455 ft | 351 kts | 271° |
| 2026-05-06 20:17 | 50.22506 | 14.42904 | 15036 ft | 353 kts | 270° |
| 2026-05-06 20:17 | 50.22651 | 14.39067 | 15567 ft | 356 kts | 270° |
| 2026-05-06 20:17 | 50.22801 | 14.35200 | 15745 ft | 356 kts | 271° |
| 2026-05-06 20:17 | 50.22955 | 14.31349 | 15815 ft | 355 kts | 271° |
| 2026-05-06 20:18 | 50.23114 | 14.27450 | 15913 ft | 355 kts | 271° |
| 2026-05-06 20:18 | 50.23604 | 14.23711 | 16027 ft | 363 kts | 288° |
| 2026-05-06 20:18 | 50.24635 | 14.20035 | 16592 ft | 366 kts | 290° |
| 2026-05-06 20:18 | 50.25668 | 14.16386 | 17164 ft | 368 kts | 290° |
| 2026-05-06 20:19 | 50.26703 | 14.12709 | 17723 ft | 371 kts | 290° |
| 2026-05-06 20:19 | 50.27743 | 14.09004 | 18249 ft | 374 kts | 290° |
| 2026-05-06 20:19 | 50.28795 | 14.05258 | 18739 ft | 377 kts | 290° |
| 2026-05-06 20:19 | 50.29854 | 14.01492 | 19247 ft | 380 kts | 290° |
| 2026-05-06 20:20 | 50.30918 | 13.97702 | 19751 ft | 382 kts | 290° |
| 2026-05-06 20:20 | 50.31991 | 13.93883 | 20262 ft | 385 kts | 290° |
| 2026-05-06 20:20 | 50.33072 | 13.90035 | 20708 ft | 388 kts | 290° |
| 2026-05-06 20:20 | 50.34158 | 13.86153 | 21163 ft | 391 kts | 290° |
| 2026-05-06 20:21 | 50.35247 | 13.82253 | 21611 ft | 393 kts | 290° |
| 2026-05-06 20:21 | 50.36346 | 13.78312 | 22052 ft | 396 kts | 290° |
| 2026-05-06 20:21 | 50.37449 | 13.74351 | 22497 ft | 398 kts | 290° |
| 2026-05-06 20:21 | 50.38558 | 13.70363 | 22941 ft | 401 kts | 290° |
| 2026-05-06 20:22 | 50.39674 | 13.66345 | 23368 ft | 403 kts | 290° |
| 2026-05-06 20:22 | 50.40790 | 13.62307 | 23733 ft | 406 kts | 290° |
| 2026-05-06 20:22 | 50.41914 | 13.58233 | 24106 ft | 408 kts | 289° |
| 2026-05-06 20:22 | 50.43041 | 13.54145 | 24478 ft | 409 kts | 289° |
| 2026-05-06 20:23 | 50.44174 | 13.50033 | 24850 ft | 411 kts | 289° |
| 2026-05-06 20:23 | 50.45309 | 13.45907 | 25219 ft | 413 kts | 289° |
| 2026-05-06 20:23 | 50.46448 | 13.41763 | 25586 ft | 415 kts | 289° |
| 2026-05-06 20:23 | 50.47595 | 13.37592 | 25944 ft | 417 kts | 289° |
| 2026-05-06 20:24 | 50.48742 | 13.33407 | 26297 ft | 418 kts | 288° |
| 2026-05-06 20:24 | 50.49889 | 13.29205 | 26639 ft | 420 kts | 288° |
| 2026-05-06 20:24 | 50.51040 | 13.24972 | 26997 ft | 422 kts | 288° |
| 2026-05-06 20:24 | 50.52208 | 13.20663 | 27357 ft | 424 kts | 288° |
| 2026-05-06 20:25 | 50.53366 | 13.16390 | 27707 ft | 426 kts | 288° |
| 2026-05-06 20:25 | 50.54530 | 13.12093 | 28063 ft | 428 kts | 287° |
| 2026-05-06 20:25 | 50.55698 | 13.07784 | 28429 ft | 430 kts | 287° |
| 2026-05-06 20:25 | 50.56872 | 13.03444 | 28756 ft | 432 kts | 287° |
| 2026-05-06 20:26 | 50.58046 | 12.99092 | 29157 ft | 432 kts | 287° |
| 2026-05-06 20:26 | 50.59220 | 12.94738 | 29642 ft | 431 kts | 287° |
| 2026-05-06 20:26 | 50.60385 | 12.90402 | 30096 ft | 429 kts | 287° |
| 2026-05-06 20:26 | 50.61542 | 12.86076 | 30524 ft | 428 kts | 286° |
| 2026-05-06 20:27 | 50.62693 | 12.81764 | 30967 ft | 426 kts | 286° |
| 2026-05-06 20:27 | 50.63837 | 12.77468 | 31427 ft | 424 kts | 286° |
| 2026-05-06 20:27 | 50.64973 | 12.73194 | 31895 ft | 422 kts | 286° |
| 2026-05-06 20:27 | 50.66106 | 12.68939 | 32352 ft | 420 kts | 286° |
| 2026-05-06 20:28 | 50.67229 | 12.64700 | 32838 ft | 418 kts | 286° |
| 2026-05-06 20:28 | 50.68347 | 12.60474 | 33290 ft | 417 kts | 286° |
| 2026-05-06 20:28 | 50.69457 | 12.56269 | 33732 ft | 415 kts | 286° |
| 2026-05-06 20:28 | 50.70560 | 12.52079 | 34079 ft | 414 kts | 286° |
| 2026-05-06 20:29 | 50.71665 | 12.47890 | 34380 ft | 414 kts | 286° |
| 2026-05-06 20:29 | 50.72774 | 12.43683 | 34646 ft | 415 kts | 286° |
| 2026-05-06 20:29 | 50.73878 | 12.39480 | 34894 ft | 415 kts | 286° |
| 2026-05-06 20:29 | 50.74983 | 12.35258 | 35134 ft | 416 kts | 286° |
| 2026-05-06 20:30 | 50.76085 | 12.31035 | 35380 ft | 417 kts | 286° |
| 2026-05-06 20:30 | 50.78309 | 12.22533 | 35767 ft | 422 kts | 287° |
| 2026-05-06 20:31 | 50.80577 | 12.13848 | 35795 ft | 435 kts | 289° |
| 2026-05-06 20:31 | 50.82212 | 12.09662 | 35795 ft | 453 kts | 306° |
| 2026-05-06 20:31 | 50.84522 | 12.06162 | 35797 ft | 465 kts | 314° |
| 2026-05-06 20:32 | 50.89512 | 11.99484 | 35794 ft | 472 kts | 315° |
| 2026-05-06 20:32 | 50.94541 | 11.92782 | 35797 ft | 472 kts | 315° |
| 2026-05-06 20:33 | 50.99576 | 11.86084 | 35804 ft | 472 kts | 315° |
| 2026-05-06 20:33 | 51.04606 | 11.79359 | 35800 ft | 473 kts | 315° |
| 2026-05-06 20:34 | 51.09642 | 11.72606 | 35799 ft | 473 kts | 315° |
| 2026-05-06 20:34 | 51.14671 | 11.65846 | 35803 ft | 473 kts | 314° |
| 2026-05-06 20:35 | 51.19121 | 11.58298 | 35869 ft | 463 kts | 299° |
| 2026-05-06 20:35 | 51.20646 | 11.53853 | 36156 ft | 453 kts | 285° |
| 2026-05-06 20:35 | 51.21503 | 11.49074 | 36409 ft | 447 kts | 278° |
| 2026-05-06 20:35 | 51.22179 | 11.44226 | 36621 ft | 449 kts | 278° |
| 2026-05-06 20:36 | 51.22830 | 11.39347 | 36817 ft | 450 kts | 277° |
| 2026-05-06 20:36 | 51.23466 | 11.34458 | 37033 ft | 450 kts | 277° |
| 2026-05-06 20:36 | 51.24098 | 11.29565 | 37267 ft | 451 kts | 277° |
| 2026-05-06 20:36 | 51.24732 | 11.24657 | 37499 ft | 452 kts | 277° |
| 2026-05-06 20:37 | 51.25366 | 11.19743 | 37719 ft | 452 kts | 277° |
| 2026-05-06 20:37 | 51.26644 | 11.09887 | 37814 ft | 454 kts | 278° |
| 2026-05-06 20:38 | 51.27922 | 11.00021 | 37828 ft | 454 kts | 278° |
| 2026-05-06 20:38 | 51.29185 | 10.90158 | 37817 ft | 453 kts | 277° |
| 2026-05-06 20:39 | 51.30446 | 10.80238 | 37809 ft | 453 kts | 277° |
| 2026-05-06 20:39 | 51.31695 | 10.70369 | 37815 ft | 453 kts | 277° |
| 2026-05-06 20:40 | 51.32728 | 10.62164 | 37823 ft | 453 kts | 277° |
| 2026-05-06 20:40 | 51.33953 | 10.52314 | 37819 ft | 452 kts | 278° |
| 2026-05-06 20:41 | 51.35167 | 10.42452 | 37817 ft | 452 kts | 277° |
| 2026-05-06 20:41 | 51.36381 | 10.32586 | 37827 ft | 452 kts | 278° |
| 2026-05-06 20:42 | 51.37588 | 10.22725 | 37828 ft | 452 kts | 277° |
| 2026-05-06 20:42 | 51.38780 | 10.12859 | 37828 ft | 452 kts | 277° |
| 2026-05-06 20:43 | 51.39962 | 10.02965 | 37827 ft | 453 kts | 278° |
| 2026-05-06 20:43 | 51.41151 | 9.93049 | 37836 ft | 454 kts | 278° |
| 2026-05-06 20:44 | 51.42336 | 9.83053 | 37845 ft | 454 kts | 278° |
| 2026-05-06 20:44 | 51.43502 | 9.73118 | 37853 ft | 454 kts | 278° |
| 2026-05-06 20:45 | 51.44663 | 9.63172 | 37859 ft | 454 kts | 278° |
| 2026-05-06 20:45 | 51.45819 | 9.53219 | 37869 ft | 454 kts | 278° |
| 2026-05-06 20:46 | 51.46961 | 9.43259 | 37866 ft | 454 kts | 278° |
| 2026-05-06 20:46 | 51.48084 | 9.33287 | 37842 ft | 454 kts | 278° |
| 2026-05-06 20:47 | 51.49211 | 9.23314 | 37848 ft | 454 kts | 277° |
| 2026-05-06 20:47 | 51.50328 | 9.13333 | 37854 ft | 454 kts | 277° |
| 2026-05-06 20:48 | 51.51314 | 9.03322 | 37862 ft | 454 kts | 275° |
| 2026-05-06 20:48 | 51.52113 | 8.93288 | 37880 ft | 453 kts | 274° |
| 2026-05-06 20:49 | 51.52881 | 8.83242 | 37888 ft | 453 kts | 275° |
| 2026-05-06 20:49 | 51.53677 | 8.73203 | 37887 ft | 453 kts | 275° |
| 2026-05-06 20:50 | 51.54490 | 8.63152 | 37890 ft | 454 kts | 275° |
| 2026-05-06 20:50 | 51.55294 | 8.53087 | 37897 ft | 454 kts | 275° |
| 2026-05-06 20:51 | 51.56082 | 8.43028 | 37880 ft | 454 kts | 275° |
| 2026-05-06 20:51 | 51.56856 | 8.32950 | 37876 ft | 454 kts | 275° |
| 2026-05-06 20:52 | 51.57626 | 8.22875 | 37890 ft | 454 kts | 275° |
| 2026-05-06 20:52 | 51.58387 | 8.12716 | 37893 ft | 455 kts | 275° |
| 2026-05-06 20:53 | 51.59141 | 8.02623 | 37901 ft | 455 kts | 275° |
| 2026-05-06 20:53 | 51.59885 | 7.92521 | 37915 ft | 455 kts | 275° |
| 2026-05-06 20:54 | 51.60616 | 7.82424 | 37918 ft | 454 kts | 275° |
| 2026-05-06 20:54 | 51.61341 | 7.72326 | 37931 ft | 455 kts | 275° |
| 2026-05-06 20:55 | 51.62056 | 7.62223 | 37920 ft | 454 kts | 275° |
| 2026-05-06 20:55 | 51.62767 | 7.52112 | 37920 ft | 454 kts | 275° |
| 2026-05-06 20:56 | 51.63469 | 7.42010 | 37912 ft | 455 kts | 275° |
| 2026-05-06 20:56 | 51.64163 | 7.31893 | 37918 ft | 455 kts | 274° |
| 2026-05-06 20:57 | 51.64847 | 7.21783 | 37916 ft | 455 kts | 275° |
| 2026-05-06 20:57 | 51.65523 | 7.11664 | 37923 ft | 455 kts | 274° |
| 2026-05-06 20:58 | 51.66191 | 7.01526 | 37926 ft | 455 kts | 274° |
| 2026-05-06 20:58 | 51.66848 | 6.91402 | 37931 ft | 455 kts | 274° |
| 2026-05-06 20:59 | 51.67494 | 6.81263 | 37931 ft | 455 kts | 274° |
| 2026-05-06 20:59 | 51.68140 | 6.71130 | 37929 ft | 455 kts | 274° |
| 2026-05-06 21:00 | 51.68769 | 6.60993 | 37933 ft | 455 kts | 274° |
| 2026-05-06 21:00 | 51.69392 | 6.50778 | 37942 ft | 455 kts | 274° |
| 2026-05-06 21:01 | 51.70001 | 6.40636 | 37944 ft | 455 kts | 274° |
| 2026-05-06 21:01 | 51.70606 | 6.30491 | 37946 ft | 455 kts | 274° |
| 2026-05-06 21:02 | 51.71206 | 6.20333 | 37947 ft | 455 kts | 274° |
| 2026-05-06 21:02 | 51.71791 | 6.10183 | 37947 ft | 455 kts | 274° |
| 2026-05-06 21:03 | 51.72371 | 6.00018 | 37947 ft | 455 kts | 274° |
| 2026-05-06 21:03 | 51.72942 | 5.89855 | 37948 ft | 455 kts | 274° |
| 2026-05-06 21:04 | 51.73503 | 5.79697 | 37952 ft | 455 kts | 274° |
| 2026-05-06 21:04 | 51.74055 | 5.69526 | 37947 ft | 455 kts | 274° |
| 2026-05-06 21:05 | 51.74597 | 5.59359 | 37953 ft | 455 kts | 274° |
| 2026-05-06 21:05 | 51.75124 | 5.49174 | 37957 ft | 455 kts | 274° |
| 2026-05-06 21:06 | 51.75644 | 5.38994 | 37957 ft | 455 kts | 274° |
| 2026-05-06 21:06 | 51.76164 | 5.28809 | 37955 ft | 455 kts | 274° |
| 2026-05-06 21:07 | 51.76680 | 5.18625 | 37960 ft | 455 kts | 274° |
| 2026-05-06 21:07 | 51.77184 | 5.08441 | 37964 ft | 455 kts | 274° |
| 2026-05-06 21:08 | 51.77677 | 4.98188 | 37967 ft | 455 kts | 273° |
| 2026-05-06 21:08 | 51.78158 | 4.87987 | 37964 ft | 455 kts | 273° |
| 2026-05-06 21:09 | 51.78633 | 4.77796 | 37964 ft | 455 kts | 273° |
| 2026-05-06 21:09 | 51.79093 | 4.67594 | 37965 ft | 455 kts | 273° |
| 2026-05-06 21:10 | 51.79550 | 4.57398 | 37970 ft | 455 kts | 273° |
| 2026-05-06 21:10 | 51.80002 | 4.47189 | 37968 ft | 455 kts | 273° |
| 2026-05-06 21:11 | 51.80441 | 4.36984 | 37973 ft | 455 kts | 273° |
| 2026-05-06 21:11 | 51.80869 | 4.26780 | 37977 ft | 455 kts | 273° |
| 2026-05-06 21:12 | 51.81299 | 4.16580 | 37969 ft | 455 kts | 273° |
| 2026-05-06 21:12 | 51.81715 | 4.06370 | 37973 ft | 455 kts | 272° |
| 2026-05-06 21:13 | 51.82107 | 3.96160 | 37977 ft | 455 kts | 272° |
| 2026-05-06 21:13 | 51.82498 | 3.85948 | 37981 ft | 453 kts | 272° |
| 2026-05-06 21:14 | 51.82882 | 3.75810 | 37972 ft | 452 kts | 273° |
| 2026-05-06 21:14 | 51.83262 | 3.65664 | 37983 ft | 452 kts | 272° |
| 2026-05-06 21:15 | 51.83564 | 3.57173 | 37972 ft | 451 kts | 272° |
| 2026-05-06 21:15 | 51.83912 | 3.47035 | 37983 ft | 452 kts | 272° |
| 2026-05-06 21:16 | 51.84259 | 3.36901 | 37983 ft | 449 kts | 272° |
| 2026-05-06 21:16 | 51.84597 | 3.26862 | 37980 ft | 448 kts | 272° |
| 2026-05-06 21:17 | 51.84850 | 3.16798 | 37985 ft | 446 kts | 266° |
| 2026-05-06 21:17 | 51.84261 | 3.06826 | 37985 ft | 446 kts | 264° |
| 2026-05-06 21:18 | 51.83615 | 2.96841 | 37997 ft | 446 kts | 263° |
| 2026-05-06 21:18 | 51.82952 | 2.86883 | 37991 ft | 447 kts | 264° |
| 2026-05-06 21:19 | 51.82279 | 2.76882 | 37992 ft | 447 kts | 264° |
| 2026-05-06 21:19 | 51.81602 | 2.66893 | 37994 ft | 449 kts | 263° |
| 2026-05-06 21:20 | 51.80915 | 2.56881 | 37998 ft | 447 kts | 263° |
| 2026-05-06 21:20 | 51.80214 | 2.46827 | 38006 ft | 448 kts | 263° |
| 2026-05-06 21:20 | 51.79863 | 2.41815 | 37540 ft | 452 kts | 263° |
| 2026-05-06 21:21 | 51.79507 | 2.36773 | 36966 ft | 450 kts | 263° |
| 2026-05-06 21:21 | 51.79151 | 2.31784 | 36506 ft | 445 kts | 263° |
| 2026-05-06 21:21 | 51.78794 | 2.26821 | 35852 ft | 445 kts | 263° |
| 2026-05-06 21:21 | 51.78435 | 2.21842 | 35126 ft | 447 kts | 263° |
| 2026-05-06 21:22 | 51.78100 | 2.16846 | 34427 ft | 448 kts | 264° |
| 2026-05-06 21:22 | 51.77799 | 2.11828 | 33696 ft | 449 kts | 265° |
| 2026-05-06 21:22 | 51.77518 | 2.06807 | 32894 ft | 449 kts | 265° |
| 2026-05-06 21:22 | 51.77241 | 2.01792 | 32112 ft | 449 kts | 265° |
| 2026-05-06 21:23 | 51.76961 | 1.96775 | 31361 ft | 448 kts | 265° |
| 2026-05-06 21:23 | 51.76674 | 1.91781 | 30628 ft | 447 kts | 264° |
| 2026-05-06 21:23 | 51.76376 | 1.86794 | 29890 ft | 446 kts | 264° |
| 2026-05-06 21:23 | 51.76069 | 1.81820 | 29047 ft | 444 kts | 264° |
| 2026-05-06 21:24 | 51.75758 | 1.76872 | 28238 ft | 442 kts | 264° |
| 2026-05-06 21:24 | 51.75446 | 1.71948 | 27458 ft | 440 kts | 264° |
| 2026-05-06 21:24 | 51.75136 | 1.67063 | 26690 ft | 437 kts | 264° |
| 2026-05-06 21:24 | 51.74827 | 1.62203 | 25951 ft | 433 kts | 264° |
| 2026-05-06 21:25 | 51.74524 | 1.57382 | 25230 ft | 430 kts | 264° |
| 2026-05-06 21:25 | 51.74224 | 1.52596 | 24523 ft | 427 kts | 264° |
| 2026-05-06 21:25 | 51.73920 | 1.47847 | 23835 ft | 425 kts | 264° |
| 2026-05-06 21:25 | 51.73614 | 1.43126 | 23071 ft | 422 kts | 264° |
| 2026-05-06 21:26 | 51.73307 | 1.38438 | 22271 ft | 419 kts | 264° |
| 2026-05-06 21:26 | 51.73002 | 1.33784 | 21495 ft | 416 kts | 264° |
| 2026-05-06 21:26 | 51.72697 | 1.29171 | 20743 ft | 412 kts | 264° |
| 2026-05-06 21:26 | 51.72397 | 1.24624 | 19994 ft | 400 kts | 264° |
| 2026-05-06 21:27 | 51.72108 | 1.20260 | 19322 ft | 384 kts | 264° |
| 2026-05-06 21:27 | 51.71829 | 1.16056 | 18692 ft | 370 kts | 264° |
| 2026-05-06 21:27 | 51.71554 | 1.11958 | 18031 ft | 357 kts | 264° |
| 2026-05-06 21:27 | 51.71288 | 1.08046 | 17326 ft | 346 kts | 264° |
| 2026-05-06 21:28 | 51.71026 | 1.04243 | 16641 ft | 336 kts | 264° |
| 2026-05-06 21:28 | 51.70771 | 1.00554 | 15969 ft | 328 kts | 264° |
| 2026-05-06 21:28 | 51.70522 | 0.96936 | 15309 ft | 321 kts | 264° |
| 2026-05-06 21:28 | 51.70280 | 0.93374 | 14670 ft | 318 kts | 265° |
| 2026-05-06 21:29 | 51.70040 | 0.89842 | 14034 ft | 316 kts | 265° |
| 2026-05-06 21:29 | 51.69799 | 0.86334 | 13358 ft | 314 kts | 265° |
| 2026-05-06 21:29 | 51.69554 | 0.82802 | 12671 ft | 321 kts | 264° |
| 2026-05-06 21:29 | 51.69298 | 0.79198 | 11994 ft | 327 kts | 264° |
| 2026-05-06 21:30 | 51.69033 | 0.75538 | 11330 ft | 331 kts | 264° |
| 2026-05-06 21:30 | 51.68764 | 0.71827 | 10679 ft | 335 kts | 264° |
| 2026-05-06 21:30 | 51.68498 | 0.68100 | 10170 ft | 333 kts | 264° |
| 2026-05-06 21:30 | 51.68236 | 0.64455 | 10017 ft | 321 kts | 264° |
| 2026-05-06 21:31 | 51.67988 | 0.60971 | 10021 ft | 305 kts | 264° |
| 2026-05-06 21:31 | 51.67747 | 0.57612 | 10026 ft | 301 kts | 264° |
| 2026-05-06 21:31 | 51.67507 | 0.54261 | 10030 ft | 300 kts | 264° |
| 2026-05-06 21:31 | 51.67266 | 0.50925 | 10026 ft | 300 kts | 264° |
| 2026-05-06 21:32 | 51.67023 | 0.47579 | 10021 ft | 300 kts | 264° |
| 2026-05-06 21:32 | 51.66531 | 0.40910 | 10025 ft | 300 kts | 264° |
| 2026-05-06 21:32 | 51.66283 | 0.37573 | 10026 ft | 299 kts | 264° |
| 2026-05-06 21:33 | 51.66035 | 0.34273 | 10025 ft | 292 kts | 264° |
| 2026-05-06 21:33 | 51.65796 | 0.31086 | 9901 ft | 282 kts | 264° |
| 2026-05-06 21:33 | 51.65564 | 0.28002 | 9704 ft | 275 kts | 264° |
| 2026-05-06 21:33 | 51.65333 | 0.24963 | 9409 ft | 272 kts | 264° |
| 2026-05-06 21:34 | 51.65104 | 0.21954 | 9143 ft | 269 kts | 264° |
| 2026-05-06 21:34 | 51.64880 | 0.18968 | 8816 ft | 268 kts | 264° |
| 2026-05-06 21:34 | 51.64659 | 0.15994 | 8511 ft | 267 kts | 264° |
| 2026-05-06 21:34 | 51.64452 | 0.13022 | 8191 ft | 267 kts | 265° |
| 2026-05-06 21:35 | 51.64283 | 0.10046 | 7848 ft | 268 kts | 265° |
| 2026-05-06 21:35 | 51.64128 | 0.07048 | 7491 ft | 269 kts | 265° |
| 2026-05-06 21:35 | 51.63973 | 0.04004 | 7139 ft | 270 kts | 264° |
| 2026-05-06 21:35 | 51.63822 | 0.01080 | 7029 ft | 259 kts | 264° |
| 2026-05-06 21:36 | 51.63669 | -0.01807 | 7050 ft | 256 kts | 266° |
| 2026-05-06 21:36 | 51.63516 | -0.04631 | 7067 ft | 252 kts | 266° |
| 2026-05-06 21:36 | 51.63358 | -0.07438 | 7071 ft | 251 kts | 266° |
| 2026-05-06 21:36 | 51.63198 | -0.10239 | 7075 ft | 251 kts | 266° |
| 2026-05-06 21:37 | 51.63040 | -0.13032 | 7079 ft | 251 kts | 266° |
| 2026-05-06 21:37 | 51.62883 | -0.15840 | 7081 ft | 251 kts | 266° |
| 2026-05-06 21:37 | 51.62725 | -0.18641 | 7079 ft | 251 kts | 265° |
| 2026-05-06 21:37 | 51.62653 | -0.21442 | 7080 ft | 251 kts | 279° |
| 2026-05-06 21:38 | 51.63272 | -0.24030 | 7083 ft | 249 kts | 305° |
| 2026-05-06 21:38 | 51.64490 | -0.25972 | 7082 ft | 248 kts | 332° |
| 2026-05-06 21:38 | 51.66139 | -0.26673 | 7083 ft | 247 kts | 2° |
| 2026-05-06 21:38 | 51.67775 | -0.25917 | 7084 ft | 248 kts | 32° |
| 2026-05-06 21:39 | 51.68950 | -0.23908 | 7083 ft | 250 kts | 63° |
| 2026-05-06 21:39 | 51.69382 | -0.21212 | 7083 ft | 252 kts | 91° |
| 2026-05-06 21:39 | 51.68938 | -0.18492 | 7084 ft | 254 kts | 119° |
| 2026-05-06 21:39 | 51.67787 | -0.16352 | 7084 ft | 255 kts | 145° |
| 2026-05-06 21:40 | 51.66169 | -0.15238 | 7084 ft | 255 kts | 172° |
| 2026-05-06 21:40 | 51.64413 | -0.15396 | 7082 ft | 254 kts | 198° |
| 2026-05-06 21:40 | 51.62891 | -0.16782 | 7081 ft | 253 kts | 225° |
| 2026-05-06 21:40 | 51.61903 | -0.19087 | 7049 ft | 252 kts | 250° |
| 2026-05-06 21:41 | 51.61598 | -0.21835 | 6835 ft | 249 kts | 268° |
| 2026-05-06 21:41 | 51.61509 | -0.24618 | 6614 ft | 249 kts | 268° |
| 2026-05-06 21:41 | 51.61413 | -0.27399 | 6386 ft | 248 kts | 267° |
| 2026-05-06 21:41 | 51.61313 | -0.30162 | 6167 ft | 247 kts | 268° |
| 2026-05-06 21:42 | 51.61211 | -0.32925 | 6046 ft | 247 kts | 267° |
| 2026-05-06 21:42 | 51.61107 | -0.35686 | 6053 ft | 248 kts | 267° |
| 2026-05-06 21:42 | 51.61001 | -0.38450 | 6028 ft | 249 kts | 267° |
| 2026-05-06 21:42 | 51.60893 | -0.41223 | 5866 ft | 247 kts | 267° |
| 2026-05-06 21:43 | 51.60786 | -0.44013 | 5706 ft | 246 kts | 267° |
| 2026-05-06 21:43 | 51.60680 | -0.46759 | 5551 ft | 246 kts | 267° |
| 2026-05-06 21:43 | 51.60572 | -0.49502 | 5394 ft | 245 kts | 267° |
| 2026-05-06 21:43 | 51.60466 | -0.52207 | 5238 ft | 239 kts | 267° |
| 2026-05-06 21:44 | 51.60363 | -0.54837 | 5082 ft | 232 kts | 267° |
| 2026-05-06 21:44 | 51.60262 | -0.57386 | 4924 ft | 225 kts | 267° |
| 2026-05-06 21:44 | 51.60161 | -0.59853 | 4765 ft | 218 kts | 267° |
| 2026-05-06 21:44 | 51.60063 | -0.62253 | 4603 ft | 213 kts | 268° |
| 2026-05-06 21:45 | 51.59970 | -0.64615 | 4443 ft | 211 kts | 268° |
| 2026-05-06 21:45 | 51.59851 | -0.66972 | 4283 ft | 212 kts | 265° |
| 2026-05-06 21:45 | 51.59707 | -0.69326 | 4137 ft | 211 kts | 265° |
| 2026-05-06 21:45 | 51.59558 | -0.71678 | 4037 ft | 212 kts | 266° |
| 2026-05-06 21:46 | 51.59408 | -0.74027 | 4020 ft | 211 kts | 266° |
| 2026-05-06 21:46 | 51.59189 | -0.76360 | 4024 ft | 212 kts | 251° |
| 2026-05-06 21:46 | 51.58406 | -0.78349 | 4021 ft | 213 kts | 223° |
| 2026-05-06 21:46 | 51.57141 | -0.79480 | 4015 ft | 207 kts | 193° |
| 2026-05-06 21:47 | 51.56191 | -0.79646 | 3935 ft | 207 kts | 178° |
| 2026-05-06 21:47 | 51.54748 | -0.79558 | 3809 ft | 204 kts | 178° |
| 2026-05-06 21:47 | 51.53326 | -0.79474 | 3659 ft | 204 kts | 178° |
| 2026-05-06 21:47 | 51.51935 | -0.79397 | 3497 ft | 197 kts | 178° |
| 2026-05-06 21:48 | 51.50581 | -0.79206 | 3340 ft | 195 kts | 166° |
| 2026-05-06 21:48 | 51.49342 | -0.78358 | 3183 ft | 193 kts | 144° |
| 2026-05-06 21:48 | 51.48378 | -0.76902 | 3073 ft | 191 kts | 124° |
| 2026-05-06 21:48 | 51.47785 | -0.75027 | 3021 ft | 187 kts | 104° |
| 2026-05-06 21:49 | 51.47622 | -0.73004 | 3019 ft | 180 kts | 87° |
| 2026-05-06 21:49 | 51.47634 | -0.71016 | 2889 ft | 177 kts | 88° |
| 2026-05-06 21:49 | 51.47646 | -0.69061 | 2682 ft | 175 kts | 88° |
| 2026-05-06 21:49 | 51.47657 | -0.67129 | 2454 ft | 173 kts | 87° |
| 2026-05-06 21:50 | 51.47668 | -0.65203 | 2223 ft | 173 kts | 87° |
| 2026-05-06 21:50 | 51.47678 | -0.63289 | 1987 ft | 168 kts | 87° |
| 2026-05-06 21:50 | 51.47687 | -0.61476 | 1780 ft | 155 kts | 86° |
| 2026-05-06 21:50 | 51.47695 | -0.59817 | 1553 ft | 144 kts | 87° |
| 2026-05-06 21:51 | 51.47710 | -0.58232 | 1371 ft | 141 kts | 86° |
| 2026-05-06 21:51 | 51.47710 | -0.56666 | 1195 ft | 140 kts | 87° |
| 2026-05-06 21:51 | 51.47709 | -0.55108 | 979 ft | 139 kts | 86° |
| 2026-05-06 21:51 | 51.47725 | -0.53572 | 735 ft | 138 kts | 89° |
| 2026-05-06 21:52 | 51.47733 | -0.52043 | 566 ft | 136 kts | 88° |
| 2026-05-06 21:52 | 51.47737 | -0.50519 | 414 ft | 136 kts | 87° |
| 2026-05-06 21:52 | 51.47749 | -0.48991 | 229 ft | 137 kts | 87° |
| 2026-05-06 21:52 | 51.47749 | -0.47469 | 99 ft | 132 kts | 88° |
| 2026-05-06 21:53 | 51.47758 | -0.46183 | 88 ft | 97 kts | 90° |
| 2026-05-06 21:53 | 51.47759 | -0.45324 | 88 ft | 49 kts | 90° |
| 2026-05-06 21:53 | 51.47727 | -0.45172 | 92 ft | 10 kts | 162° |
| 2026-05-06 21:53 | 51.47648 | -0.45178 | 86 ft | 13 kts | 182° |
| 2026-05-06 21:54 | 51.47604 | -0.45146 | 88 ft | 6 kts | 117° |
| 2026-05-06 21:54 | 51.47598 | -0.45059 | 86 ft | 10 kts | 89° |
| 2026-05-06 21:54 | 51.47598 | -0.44933 | 86 ft | 13 kts | 89° |
| 2026-05-06 21:54 | 51.47599 | -0.44770 | 86 ft | 16 kts | 89° |
| 2026-05-06 21:55 | 51.47535 | -0.44654 | 88 ft | 17 kts | 167° |
| 2026-05-06 21:55 | 51.47446 | -0.44562 | 88 ft | 17 kts | 172° |
| 2026-05-06 21:55 | 51.47321 | -0.44560 | 86 ft | 19 kts | 180° |
| 2026-05-06 21:55 | 51.47177 | -0.44558 | 86 ft | 22 kts | 179° |
| 2026-05-06 21:56 | 51.47014 | -0.44555 | 86 ft | 25 kts | 179° |
| 2026-05-06 21:56 | 51.46836 | -0.44553 | 86 ft | 24 kts | 180° |
| 2026-05-06 21:56 | 51.46762 | -0.44578 | 89 ft | 9 kts | 229° |
| 2026-05-06 21:56 | 51.46754 | -0.44690 | 86 ft | 12 kts | 272° |
| 2026-05-06 21:57 | 51.46752 | -0.44832 | 86 ft | 12 kts | 268° |
| 2026-05-06 21:57 | 51.46752 | -0.44868 | 86 ft | 1 kts | 269° |
| 2026-05-06 21:57 | 51.46752 | -0.44869 | 86 ft | 0 kts | 269° |
| 2026-05-06 21:58 | 51.46752 | -0.44872 | 86 ft | 0 kts | 269° |
| 2026-05-06 21:58 | 51.46752 | -0.44887 | 86 ft | 4 kts | 269° |
| 2026-05-06 21:58 | 51.46751 | -0.44964 | 86 ft | 8 kts | 269° |
| 2026-05-06 21:59 | 51.46751 | -0.45076 | 86 ft | 12 kts | 270° |
| 2026-05-06 21:59 | 51.46751 | -0.45226 | 86 ft | 16 kts | 270° |
| 2026-05-06 21:59 | 51.46751 | -0.45427 | 86 ft | 20 kts | 270° |
| 2026-05-06 21:59 | 51.46750 | -0.45661 | 88 ft | 22 kts | 269° |
| 2026-05-06 22:00 | 51.46748 | -0.45911 | 86 ft | 17 kts | 269° |
| 2026-05-06 22:00 | 51.46753 | -0.45964 | 86 ft | 4 kts | 294° |
| 2026-05-06 22:00 | 51.46784 | -0.45981 | 87 ft | 6 kts | 354° |
| 2026-05-06 22:00 | 51.46839 | -0.46001 | 88 ft | 11 kts | 330° |
| 2026-05-06 22:01 | 51.46887 | -0.46050 | 88 ft | 3 kts | 328° |
| 2026-05-06 22:01 | 51.46904 | -0.46036 | 88 ft | 4 kts | 38° |
| 2026-05-06 22:01 | 51.46925 | -0.45990 | 88 ft | 5 kts | 55° |
| 2026-05-06 22:01 | 51.46933 | -0.45972 | 88 ft | 1 kts | 56° |
| 2026-05-06 22:02 | 51.46934 | -0.45970 | 88 ft | 0 kts | 56° |